Clarksville, Missouri
Current Conditions -  °F | °C
As of 4:35 PM on Tuesday 21 Oct 2014 (Local Time) from KPPQ Reporting Station
Haze Haze  
Wind Chill: 64°   Ceiling: Unl
Heat Index: 64°   Visibility: 3mi
Dew Point: 42°   Wind: 6mph
Humidity: 46%   Direction: 40°NE
Pressure: 30.14"   Gusts: NA
Location:  39.37°N, 90.91°W
Report Text: KPPQ 212135Z AUTO 04005KT 3SM HZ CLR 18/06 A3014 RMK AO2 T01760057
Loading
Personal Weather Stations






























Interactive Weather Map
Tropical Storm Tracking
New forecast layout! Learn more

10-Day Weather Forecast

Advertisements
Track Severe Weather on mobile